sensor_id;sensor_type;location;lat;lon;timestamp;temperature;humidity
16503;DHT22;53067;48.114;11.694;2023-02-02T00:01:40;5.50;70.50
16503;DHT22;53067;48.114;11.694;2023-02-02T00:04:14;5.50;70.70
16503;DHT22;53067;48.114;11.694;2023-02-02T00:06:39;5.50;70.50
16503;DHT22;53067;48.114;11.694;2023-02-02T00:09:06;5.50;70.40
16503;DHT22;53067;48.114;11.694;2023-02-02T00:11:34;5.60;70.50
16503;DHT22;53067;48.114;11.694;2023-02-02T00:14:01;5.60;70.40
16503;DHT22;53067;48.114;11.694;2023-02-02T00:19:03;5.60;70.80
16503;DHT22;53067;48.114;11.694;2023-02-02T00:21:31;5.50;71.00
16503;DHT22;53067;48.114;11.694;2023-02-02T00:23:58;5.40;71.70
16503;DHT22;53067;48.114;11.694;2023-02-02T00:26:27;5.40;72.50
16503;DHT22;53067;48.114;11.694;2023-02-02T00:28:54;5.40;72.90
16503;DHT22;53067;48.114;11.694;2023-02-02T00:31:22;5.40;72.10
16503;DHT22;53067;48.114;11.694;2023-02-02T00:33:50;5.50;71.80
16503;DHT22;53067;48.114;11.694;2023-02-02T00:36:19;5.50;72.10
16503;DHT22;53067;48.114;11.694;2023-02-02T00:38:47;5.50;71.70
16503;DHT22;53067;48.114;11.694;2023-02-02T00:41:15;5.40;71.70
16503;DHT22;53067;48.114;11.694;2023-02-02T00:43:43;5.40;72.10
16503;DHT22;53067;48.114;11.694;2023-02-02T00:46:16;5.40;72.50
16503;DHT22;53067;48.114;11.694;2023-02-02T00:48:43;5.40;72.10
16503;DHT22;53067;48.114;11.694;2023-02-02T00:51:10;5.40;72.70
16503;DHT22;53067;48.114;11.694;2023-02-02T00:53:38;5.40;72.90
16503;DHT22;53067;48.114;11.694;2023-02-02T00:56:06;5.30;72.80
16503;DHT22;53067;48.114;11.694;2023-02-02T00:58:33;5.30;73.60
16503;DHT22;53067;48.114;11.694;2023-02-02T01:01:01;5.30;73.00
16503;DHT22;53067;48.114;11.694;2023-02-02T01:03:29;5.30;73.50
16503;DHT22;53067;48.114;11.694;2023-02-02T01:05:56;5.20;73.70
16503;DHT22;53067;48.114;11.694;2023-02-02T01:08:24;5.20;74.30
16503;DHT22;53067;48.114;11.694;2023-02-02T01:10:51;5.10;74.30
16503;DHT22;53067;48.114;11.694;2023-02-02T01:13:19;5.10;75.00
16503;DHT22;53067;48.114;11.694;2023-02-02T01:15:46;5.10;75.60
16503;DHT22;53067;48.114;11.694;2023-02-02T01:18:14;5.00;76.10
16503;DHT22;53067;48.114;11.694;2023-02-02T01:20:41;5.00;77.00
16503;DHT22;53067;48.114;11.694;2023-02-02T01:23:09;5.00;77.00
16503;DHT22;53067;48.114;11.694;2023-02-02T01:25:36;4.90;77.20
16503;DHT22;53067;48.114;11.694;2023-02-02T01:28:04;4.90;77.40
16503;DHT22;53067;48.114;11.694;2023-02-02T01:30:32;4.90;77.70
16503;DHT22;53067;48.114;11.694;2023-02-02T01:32:59;4.90;77.80
16503;DHT22;53067;48.114;11.694;2023-02-02T01:35:27;4.90;77.80
16503;DHT22;53067;48.114;11.694;2023-02-02T01:37:55;4.90;77.60
16503;DHT22;53067;48.114;11.694;2023-02-02T01:40:22;4.90;77.20
16503;DHT22;53067;48.114;11.694;2023-02-02T01:42:50;4.90;77.30
16503;DHT22;53067;48.114;11.694;2023-02-02T01:45:23;4.90;76.90
16503;DHT22;53067;48.114;11.694;2023-02-02T01:47:57;4.90;76.90
16503;DHT22;53067;48.114;11.694;2023-02-02T01:50:41;4.90;77.00
16503;DHT22;53067;48.114;11.694;2023-02-02T01:53:09;4.90;76.80
16503;DHT22;53067;48.114;11.694;2023-02-02T01:55:39;5.00;76.80
16503;DHT22;53067;48.114;11.694;2023-02-02T01:58:19;5.00;76.30
16503;DHT22;53067;48.114;11.694;2023-02-02T02:00:47;5.00;75.70
16503;DHT22;53067;48.114;11.694;2023-02-02T02:03:17;5.10;75.90
16503;DHT22;53067;48.114;11.694;2023-02-02T02:05:54;5.10;75.50
16503;DHT22;53067;48.114;11.694;2023-02-02T02:08:28;5.10;75.90
16503;DHT22;53067;48.114;11.694;2023-02-02T02:10:56;5.10;75.30
16503;DHT22;53067;48.114;11.694;2023-02-02T02:13:26;5.10;75.00
16503;DHT22;53067;48.114;11.694;2023-02-02T02:15:59;5.10;75.00
16503;DHT22;53067;48.114;11.694;2023-02-02T02:19:00;5.10;75.00
16503;DHT22;53067;48.114;11.694;2023-02-02T02:25:17;5.10;74.70
16503;DHT22;53067;48.114;11.694;2023-02-02T02:39:41;5.10;74.70
16503;DHT22;53067;48.114;11.694;2023-02-02T02:42:13;5.10;74.70
16503;DHT22;53067;48.114;11.694;2023-02-02T02:44:42;5.10;74.80
16503;DHT22;53067;48.114;11.694;2023-02-02T02:47:10;5.10;74.60
16503;DHT22;53067;48.114;11.694;2023-02-02T02:49:45;5.20;74.40
16503;DHT22;53067;48.114;11.694;2023-02-02T02:52:14;5.10;74.40
16503;DHT22;53067;48.114;11.694;2023-02-02T02:54:48;5.10;74.30
16503;DHT22;53067;48.114;11.694;2023-02-02T03:06:00;5.20;74.80
16503;DHT22;53067;48.114;11.694;2023-02-02T03:08:54;5.20;74.10
16503;DHT22;53067;48.114;11.694;2023-02-02T03:11:22;5.10;74.20
16503;DHT22;53067;48.114;11.694;2023-02-02T03:13:49;5.20;74.50
16503;DHT22;53067;48.114;11.694;2023-02-02T03:16:17;5.20;74.20
16503;DHT22;53067;48.114;11.694;2023-02-02T03:18:44;5.30;74.00
16503;DHT22;53067;48.114;11.694;2023-02-02T03:21:12;5.30;73.70
16503;DHT22;53067;48.114;11.694;2023-02-02T03:23:40;5.30;73.70
16503;DHT22;53067;48.114;11.694;2023-02-02T03:26:07;5.30;74.00
16503;DHT22;53067;48.114;11.694;2023-02-02T03:28:35;5.30;75.30
16503;DHT22;53067;48.114;11.694;2023-02-02T03:31:03;5.20;76.60
16503;DHT22;53067;48.114;11.694;2023-02-02T03:33:32;5.10;77.00
16503;DHT22;53067;48.114;11.694;2023-02-02T03:36:01;5.10;77.10
16503;DHT22;53067;48.114;11.694;2023-02-02T03:38:29;5.10;76.60
16503;DHT22;53067;48.114;11.694;2023-02-02T03:40:56;5.10;76.60
16503;DHT22;53067;48.114;11.694;2023-02-02T03:43:24;5.10;76.80
16503;DHT22;53067;48.114;11.694;2023-02-02T03:46:01;5.10;77.20
16503;DHT22;53067;48.114;11.694;2023-02-02T03:48:25;5.10;77.80
16503;DHT22;53067;48.114;11.694;2023-02-02T03:50:53;5.00;78.50
16503;DHT22;53067;48.114;11.694;2023-02-02T03:53:21;4.90;79.00
16503;DHT22;53067;48.114;11.694;2023-02-02T03:55:48;4.90;79.40
16503;DHT22;53067;48.114;11.694;2023-02-02T03:58:16;4.90;79.10
16503;DHT22;53067;48.114;11.694;2023-02-02T04:00:43;4.90;78.80
16503;DHT22;53067;48.114;11.694;2023-02-02T04:03:11;4.90;78.80
16503;DHT22;53067;48.114;11.694;2023-02-02T04:05:38;4.90;78.70
16503;DHT22;53067;48.114;11.694;2023-02-02T04:08:06;5.00;78.40
16503;DHT22;53067;48.114;11.694;2023-02-02T04:10:33;5.00;78.20
16503;DHT22;53067;48.114;11.694;2023-02-02T04:13:01;5.00;77.90
16503;DHT22;53067;48.114;11.694;2023-02-02T04:15:28;5.00;78.20
16503;DHT22;53067;48.114;11.694;2023-02-02T04:17:56;5.00;78.00
16503;DHT22;53067;48.114;11.694;2023-02-02T04:20:23;5.00;77.90
16503;DHT22;53067;48.114;11.694;2023-02-02T04:22:52;5.10;78.00
16503;DHT22;53067;48.114;11.694;2023-02-02T04:25:20;5.10;78.80
16503;DHT22;53067;48.114;11.694;2023-02-02T04:27:48;5.10;78.80
16503;DHT22;53067;48.114;11.694;2023-02-02T04:30:15;5.00;78.60
16503;DHT22;53067;48.114;11.694;2023-02-02T04:32:45;5.10;78.90
16503;DHT22;53067;48.114;11.694;2023-02-02T04:35:13;5.10;78.50
16503;DHT22;53067;48.114;11.694;2023-02-02T04:37:41;5.10;78.30
16503;DHT22;53067;48.114;11.694;2023-02-02T04:40:09;5.10;78.00
16503;DHT22;53067;48.114;11.694;2023-02-02T04:42:38;5.20;79.20
16503;DHT22;53067;48.114;11.694;2023-02-02T04:45:06;5.20;78.80
16503;DHT22;53067;48.114;11.694;2023-02-02T04:47:33;5.10;79.50
16503;DHT22;53067;48.114;11.694;2023-02-02T04:50:01;5.10;79.70
16503;DHT22;53067;48.114;11.694;2023-02-02T04:52:29;5.00;80.10
16503;DHT22;53067;48.114;11.694;2023-02-02T04:54:56;5.00;79.60
16503;DHT22;53067;48.114;11.694;2023-02-02T04:57:25;5.00;79.40
16503;DHT22;53067;48.114;11.694;2023-02-02T04:59:52;5.00;79.00
16503;DHT22;53067;48.114;11.694;2023-02-02T05:02:20;5.10;78.80
16503;DHT22;53067;48.114;11.694;2023-02-02T05:04:47;5.10;78.50
16503;DHT22;53067;48.114;11.694;2023-02-02T05:07:15;5.10;78.10
16503;DHT22;53067;48.114;11.694;2023-02-02T05:09:43;5.20;77.90
16503;DHT22;53067;48.114;11.694;2023-02-02T05:12:10;5.20;77.60
16503;DHT22;53067;48.114;11.694;2023-02-02T05:14:38;5.20;77.80
16503;DHT22;53067;48.114;11.694;2023-02-02T05:17:05;5.30;78.00
16503;DHT22;53067;48.114;11.694;2023-02-02T05:19:33;5.30;77.50
16503;DHT22;53067;48.114;11.694;2023-02-02T05:22:00;5.30;77.40
16503;DHT22;53067;48.114;11.694;2023-02-02T05:24:28;5.40;77.50
16503;DHT22;53067;48.114;11.694;2023-02-02T05:26:55;5.40;77.60
16503;DHT22;53067;48.114;11.694;2023-02-02T05:29:25;5.30;78.10
16503;DHT22;53067;48.114;11.694;2023-02-02T05:31:53;5.30;78.40
16503;DHT22;53067;48.114;11.694;2023-02-02T05:34:21;5.20;78.70
16503;DHT22;53067;48.114;11.694;2023-02-02T05:36:49;5.30;78.70
16503;DHT22;53067;48.114;11.694;2023-02-02T05:39:16;5.30;78.80
16503;DHT22;53067;48.114;11.694;2023-02-02T05:41:44;5.30;79.20
16503;DHT22;53067;48.114;11.694;2023-02-02T05:44:14;5.20;79.30
16503;DHT22;53067;48.114;11.694;2023-02-02T05:46:41;5.20;79.60
16503;DHT22;53067;48.114;11.694;2023-02-02T05:49:12;5.20;79.60
16503;DHT22;53067;48.114;11.694;2023-02-02T05:51:42;5.10;80.30
16503;DHT22;53067;48.114;11.694;2023-02-02T05:54:11;5.10;79.80
16503;DHT22;53067;48.114;11.694;2023-02-02T05:56:38;5.10;80.50
16503;DHT22;53067;48.114;11.694;2023-02-02T05:59:06;5.10;80.40
16503;DHT22;53067;48.114;11.694;2023-02-02T06:01:33;5.20;80.30
16503;DHT22;53067;48.114;11.694;2023-02-02T06:04:01;5.20;80.10
16503;DHT22;53067;48.114;11.694;2023-02-02T06:06:28;5.20;79.90
16503;DHT22;53067;48.114;11.694;2023-02-02T06:08:56;5.20;80.30
16503;DHT22;53067;48.114;11.694;2023-02-02T06:11:23;5.20;79.90
16503;DHT22;53067;48.114;11.694;2023-02-02T06:13:51;5.20;79.80
16503;DHT22;53067;48.114;11.694;2023-02-02T06:16:18;5.10;80.10
16503;DHT22;53067;48.114;11.694;2023-02-02T06:18:46;5.10;79.90
16503;DHT22;53067;48.114;11.694;2023-02-02T06:21:14;5.20;79.60
16503;DHT22;53067;48.114;11.694;2023-02-02T06:23:41;5.20;80.00
16503;DHT22;53067;48.114;11.694;2023-02-02T06:26:12;5.20;79.80
16503;DHT22;53067;48.114;11.694;2023-02-02T06:28:40;5.10;79.70
16503;DHT22;53067;48.114;11.694;2023-02-02T06:31:10;5.20;79.80
16503;DHT22;53067;48.114;11.694;2023-02-02T06:33:38;5.20;80.20
16503;DHT22;53067;48.114;11.694;2023-02-02T06:36:06;5.20;79.10
16503;DHT22;53067;48.114;11.694;2023-02-02T06:38:34;5.20;79.00
16503;DHT22;53067;48.114;11.694;2023-02-02T06:41:02;5.30;78.40
16503;DHT22;53067;48.114;11.694;2023-02-02T06:43:30;5.30;78.40
16503;DHT22;53067;48.114;11.694;2023-02-02T06:45:58;5.30;78.50
16503;DHT22;53067;48.114;11.694;2023-02-02T06:48:26;5.20;78.60
16503;DHT22;53067;48.114;11.694;2023-02-02T06:50:56;5.20;78.30
16503;DHT22;53067;48.114;11.694;2023-02-02T06:53:22;5.30;78.60
16503;DHT22;53067;48.114;11.694;2023-02-02T06:55:55;5.30;78.10
16503;DHT22;53067;48.114;11.694;2023-02-02T06:58:23;5.30;77.90
16503;DHT22;53067;48.114;11.694;2023-02-02T07:00:50;5.30;77.90
16503;DHT22;53067;48.114;11.694;2023-02-02T07:03:19;5.30;78.20
16503;DHT22;53067;48.114;11.694;2023-02-02T07:05:50;5.40;77.70
16503;DHT22;53067;48.114;11.694;2023-02-02T07:08:17;5.40;77.50
16503;DHT22;53067;48.114;11.694;2023-02-02T07:10:45;5.40;77.80
16503;DHT22;53067;48.114;11.694;2023-02-02T07:13:12;5.40;77.60
16503;DHT22;53067;48.114;11.694;2023-02-02T07:15:40;5.40;77.80
16503;DHT22;53067;48.114;11.694;2023-02-02T07:18:08;5.40;77.90
16503;DHT22;53067;48.114;11.694;2023-02-02T07:20:35;5.40;78.30
16503;DHT22;53067;48.114;11.694;2023-02-02T07:23:03;5.40;78.10
16503;DHT22;53067;48.114;11.694;2023-02-02T07:25:30;5.40;78.20
16503;DHT22;53067;48.114;11.694;2023-02-02T07:27:58;5.40;77.90
16503;DHT22;53067;48.114;11.694;2023-02-02T07:30:25;5.40;77.70
16503;DHT22;53067;48.114;11.694;2023-02-02T07:32:55;5.40;78.10
16503;DHT22;53067;48.114;11.694;2023-02-02T07:35:23;5.40;77.90
16503;DHT22;53067;48.114;11.694;2023-02-02T07:37:54;5.40;77.90
16503;DHT22;53067;48.114;11.694;2023-02-02T07:40:22;5.50;77.60
16503;DHT22;53067;48.114;11.694;2023-02-02T07:42:50;5.50;77.80
16503;DHT22;53067;48.114;11.694;2023-02-02T07:45:17;5.50;77.50
16503;DHT22;53067;48.114;11.694;2023-02-02T07:47:46;5.50;77.80
16503;DHT22;53067;48.114;11.694;2023-02-02T07:50:13;5.50;77.60
16503;DHT22;53067;48.114;11.694;2023-02-02T07:52:41;5.50;78.00
16503;DHT22;53067;48.114;11.694;2023-02-02T07:55:08;5.40;78.40
16503;DHT22;53067;48.114;11.694;2023-02-02T07:57:37;5.50;78.70
16503;DHT22;53067;48.114;11.694;2023-02-02T08:00:05;5.50;79.00
16503;DHT22;53067;48.114;11.694;2023-02-02T08:02:33;5.50;79.30
16503;DHT22;53067;48.114;11.694;2023-02-02T08:05:01;5.40;79.20
16503;DHT22;53067;48.114;11.694;2023-02-02T08:07:28;5.40;79.40
16503;DHT22;53067;48.114;11.694;2023-02-02T08:09:57;5.40;79.80
16503;DHT22;53067;48.114;11.694;2023-02-02T08:12:25;5.40;80.20
16503;DHT22;53067;48.114;11.694;2023-02-02T08:14:53;5.40;80.50
16503;DHT22;53067;48.114;11.694;2023-02-02T08:17:21;5.40;80.20
16503;DHT22;53067;48.114;11.694;2023-02-02T08:19:49;5.40;81.20
16503;DHT22;53067;48.114;11.694;2023-02-02T08:22:16;5.40;80.30
16503;DHT22;53067;48.114;11.694;2023-02-02T08:24:44;5.40;80.70
16503;DHT22;53067;48.114;11.694;2023-02-02T08:27:11;5.40;80.80
16503;DHT22;53067;48.114;11.694;2023-02-02T08:29:39;5.40;80.30
16503;DHT22;53067;48.114;11.694;2023-02-02T08:32:06;5.40;80.60
16503;DHT22;53067;48.114;11.694;2023-02-02T08:34:34;5.40;80.70
16503;DHT22;53067;48.114;11.694;2023-02-02T08:37:03;5.40;80.80
16503;DHT22;53067;48.114;11.694;2023-02-02T08:39:30;5.40;80.80
16503;DHT22;53067;48.114;11.694;2023-02-02T08:41:58;5.40;81.00
16503;DHT22;53067;48.114;11.694;2023-02-02T08:44:25;5.40;80.90
16503;DHT22;53067;48.114;11.694;2023-02-02T08:46:53;5.50;80.90
16503;DHT22;53067;48.114;11.694;2023-02-02T08:49:20;5.40;81.00
16503;DHT22;53067;48.114;11.694;2023-02-02T08:51:48;5.40;81.60
16503;DHT22;53067;48.114;11.694;2023-02-02T08:54:15;5.40;81.50
16503;DHT22;53067;48.114;11.694;2023-02-02T08:56:43;5.40;81.70
16503;DHT22;53067;48.114;11.694;2023-02-02T08:59:10;5.30;81.60
16503;DHT22;53067;48.114;11.694;2023-02-02T09:01:38;5.30;82.30
16503;DHT22;53067;48.114;11.694;2023-02-02T09:04:07;5.30;82.10
16503;DHT22;53067;48.114;11.694;2023-02-02T09:06:40;5.30;82.40
16503;DHT22;53067;48.114;11.694;2023-02-02T09:09:11;5.30;82.80
16503;DHT22;53067;48.114;11.694;2023-02-02T09:11:39;5.30;83.20
16503;DHT22;53067;48.114;11.694;2023-02-02T09:14:08;5.30;83.10
16503;DHT22;53067;48.114;11.694;2023-02-02T09:16:36;5.30;83.00
16503;DHT22;53067;48.114;11.694;2023-02-02T09:19:04;5.30;83.00
16503;DHT22;53067;48.114;11.694;2023-02-02T09:21:32;5.30;82.10
16503;DHT22;53067;48.114;11.694;2023-02-02T09:24:11;5.30;82.50
16503;DHT22;53067;48.114;11.694;2023-02-02T09:26:35;5.40;82.40
16503;DHT22;53067;48.114;11.694;2023-02-02T09:29:05;5.30;81.70
16503;DHT22;53067;48.114;11.694;2023-02-02T09:31:34;5.30;81.90
16503;DHT22;53067;48.114;11.694;2023-02-02T09:34:10;5.30;82.50
16503;DHT22;53067;48.114;11.694;2023-02-02T09:36:39;5.40;82.00
16503;DHT22;53067;48.114;11.694;2023-02-02T09:39:07;5.40;81.90
16503;DHT22;53067;48.114;11.694;2023-02-02T09:50:12;5.40;82.00
16503;DHT22;53067;48.114;11.694;2023-02-02T09:52:43;5.30;82.00
16503;DHT22;53067;48.114;11.694;2023-02-02T09:58:19;5.30;82.40
16503;DHT22;53067;48.114;11.694;2023-02-02T10:01:11;5.40;82.40
16503;DHT22;53067;48.114;11.694;2023-02-02T10:04:04;5.40;82.70
16503;DHT22;53067;48.114;11.694;2023-02-02T10:06:39;5.40;82.40
16503;DHT22;53067;48.114;11.694;2023-02-02T10:14:41;5.30;83.60
16503;DHT22;53067;48.114;11.694;2023-02-02T10:22:56;5.40;83.00
16503;DHT22;53067;48.114;11.694;2023-02-02T10:25:26;5.40;82.60
16503;DHT22;53067;48.114;11.694;2023-02-02T10:28:07;5.40;82.90
16503;DHT22;53067;48.114;11.694;2023-02-02T10:30:43;5.50;82.20
16503;DHT22;53067;48.114;11.694;2023-02-02T10:33:13;5.50;82.20
16503;DHT22;53067;48.114;11.694;2023-02-02T10:35:51;5.50;82.40
16503;DHT22;53067;48.114;11.694;2023-02-02T10:38:40;5.50;82.10
16503;DHT22;53067;48.114;11.694;2023-02-02T10:40:58;5.60;81.60
16503;DHT22;53067;48.114;11.694;2023-02-02T10:46:14;5.60;81.60
16503;DHT22;53067;48.114;11.694;2023-02-02T10:48:47;5.60;80.90
16503;DHT22;53067;48.114;11.694;2023-02-02T10:53:58;5.60;80.90
16503;DHT22;53067;48.114;11.694;2023-02-02T10:56:35;5.60;80.70
16503;DHT22;53067;48.114;11.694;2023-02-02T10:59:15;5.60;80.70
16503;DHT22;53067;48.114;11.694;2023-02-02T11:01:44;5.60;80.30
16503;DHT22;53067;48.114;11.694;2023-02-02T11:04:11;5.60;80.30
16503;DHT22;53067;48.114;11.694;2023-02-02T11:06:57;5.70;81.40
16503;DHT22;53067;48.114;11.694;2023-02-02T11:09:30;5.70;81.00
16503;DHT22;53067;48.114;11.694;2023-02-02T11:12:22;5.70;80.70
16503;DHT22;53067;48.114;11.694;2023-02-02T11:15:00;5.80;80.70
16503;DHT22;53067;48.114;11.694;2023-02-02T11:17:22;5.80;80.40
16503;DHT22;53067;48.114;11.694;2023-02-02T11:19:50;5.80;81.00
16503;DHT22;53067;48.114;11.694;2023-02-02T11:22:35;5.90;80.90
16503;DHT22;53067;48.114;11.694;2023-02-02T11:27:51;6.00;79.40
16503;DHT22;53067;48.114;11.694;2023-02-02T11:30:36;5.90;79.40
16503;DHT22;53067;48.114;11.694;2023-02-02T11:33:33;5.90;80.40
16503;DHT22;53067;48.114;11.694;2023-02-02T11:36:03;5.90;80.50
16503;DHT22;53067;48.114;11.694;2023-02-02T11:38:31;6.00;80.90
16503;DHT22;53067;48.114;11.694;2023-02-02T11:41:03;6.00;80.50
16503;DHT22;53067;48.114;11.694;2023-02-02T11:43:58;6.00;80.50
16503;DHT22;53067;48.114;11.694;2023-02-02T11:49:00;6.00;80.60
16503;DHT22;53067;48.114;11.694;2023-02-02T11:51:29;5.90;81.50
16503;DHT22;53067;48.114;11.694;2023-02-02T11:54:05;5.90;81.70
16503;DHT22;53067;48.114;11.694;2023-02-02T11:56:35;5.80;81.20
16503;DHT22;53067;48.114;11.694;2023-02-02T11:59:03;5.80;82.60
16503;DHT22;53067;48.114;11.694;2023-02-02T12:01:33;5.80;82.10
16503;DHT22;53067;48.114;11.694;2023-02-02T12:06:41;5.80;82.80
16503;DHT22;53067;48.114;11.694;2023-02-02T12:09:14;5.80;82.20
16503;DHT22;53067;48.114;11.694;2023-02-02T12:14:53;5.80;81.90
16503;DHT22;53067;48.114;11.694;2023-02-02T12:17:38;5.80;82.90
16503;DHT22;53067;48.114;11.694;2023-02-02T12:25:57;5.80;82.90
16503;DHT22;53067;48.114;11.694;2023-02-02T12:28:40;5.80;82.60
16503;DHT22;53067;48.114;11.694;2023-02-02T12:34:13;5.70;82.60
16503;DHT22;53067;48.114;11.694;2023-02-02T12:36:46;5.70;83.40
16503;DHT22;53067;48.114;11.694;2023-02-02T12:39:19;5.70;83.20
16503;DHT22;53067;48.114;11.694;2023-02-02T12:44:39;5.80;83.30
16503;DHT22;53067;48.114;11.694;2023-02-02T12:52:39;5.70;83.50
16503;DHT22;53067;48.114;11.694;2023-02-02T12:55:25;5.70;84.10
16503;DHT22;53067;48.114;11.694;2023-02-02T12:58:19;5.70;83.70
16503;DHT22;53067;48.114;11.694;2023-02-02T13:00:45;5.70;84.10
16503;DHT22;53067;48.114;11.694;2023-02-02T13:03:42;5.70;84.80
16503;DHT22;53067;48.114;11.694;2023-02-02T13:09:21;5.60;84.20
16503;DHT22;53067;48.114;11.694;2023-02-02T13:11:50;5.50;84.70
16503;DHT22;53067;48.114;11.694;2023-02-02T13:14:24;5.50;84.70
16503;DHT22;53067;48.114;11.694;2023-02-02T13:16:59;5.40;85.30
16503;DHT22;53067;48.114;11.694;2023-02-02T13:19:39;5.40;86.20
16503;DHT22;53067;48.114;11.694;2023-02-02T13:22:04;5.40;86.20
16503;DHT22;53067;48.114;11.694;2023-02-02T13:24:35;5.40;86.30
16503;DHT22;53067;48.114;11.694;2023-02-02T13:27:05;5.40;86.60
16503;DHT22;53067;48.114;11.694;2023-02-02T13:29:41;5.40;86.20
16503;DHT22;53067;48.114;11.694;2023-02-02T13:32:20;5.40;86.40
16503;DHT22;53067;48.114;11.694;2023-02-02T13:42:56;5.20;87.80
16503;DHT22;53067;48.114;11.694;2023-02-02T13:51:31;5.10;89.10
16503;DHT22;53067;48.114;11.694;2023-02-02T13:54:18;5.10;88.70
16503;DHT22;53067;48.114;11.694;2023-02-02T14:02:37;5.00;89.60
16503;DHT22;53067;48.114;11.694;2023-02-02T14:05:04;5.00;89.70
16503;DHT22;53067;48.114;11.694;2023-02-02T14:07:40;5.00;90.00
16503;DHT22;53067;48.114;11.694;2023-02-02T14:10:26;5.10;90.00
16503;DHT22;53067;48.114;11.694;2023-02-02T14:12:55;5.00;89.90
16503;DHT22;53067;48.114;11.694;2023-02-02T14:15:37;5.00;89.80
16503;DHT22;53067;48.114;11.694;2023-02-02T14:18:05;5.00;90.00
16503;DHT22;53067;48.114;11.694;2023-02-02T14:20:41;5.00;90.00
16503;DHT22;53067;48.114;11.694;2023-02-02T14:26:19;5.00;90.20
16503;DHT22;53067;48.114;11.694;2023-02-02T14:28:48;4.90;90.10
16503;DHT22;53067;48.114;11.694;2023-02-02T14:34:29;4.90;90.30
16503;DHT22;53067;48.114;11.694;2023-02-02T14:45:41;4.90;90.30
16503;DHT22;53067;48.114;11.694;2023-02-02T14:48:15;4.90;90.50
16503;DHT22;53067;48.114;11.694;2023-02-02T14:50:53;4.90;90.50
16503;DHT22;53067;48.114;11.694;2023-02-02T14:56:04;4.90;90.30
16503;DHT22;53067;48.114;11.694;2023-02-02T14:58:35;4.90;90.20
16503;DHT22;53067;48.114;11.694;2023-02-02T15:01:07;4.90;90.40
16503;DHT22;53067;48.114;11.694;2023-02-02T15:03:49;4.90;90.50
16503;DHT22;53067;48.114;11.694;2023-02-02T15:20:23;4.90;90.20
16503;DHT22;53067;48.114;11.694;2023-02-02T15:23:03;4.90;90.50
16503;DHT22;53067;48.114;11.694;2023-02-02T15:25:51;4.90;90.50
16503;DHT22;53067;48.114;11.694;2023-02-02T15:28:40;4.90;90.30
16503;DHT22;53067;48.114;11.694;2023-02-02T15:36:55;4.90;90.40
16503;DHT22;53067;48.114;11.694;2023-02-02T15:39:29;5.00;90.30
16503;DHT22;53067;48.114;11.694;2023-02-02T15:42:01;4.90;90.40
16503;DHT22;53067;48.114;11.694;2023-02-02T15:44:47;4.90;91.00
16503;DHT22;53067;48.114;11.694;2023-02-02T15:47:21;4.90;90.50
16503;DHT22;53067;48.114;11.694;2023-02-02T15:49:48;4.90;90.50
16503;DHT22;53067;48.114;11.694;2023-02-02T15:52:23;4.90;90.50
16503;DHT22;53067;48.114;11.694;2023-02-02T15:54:52;5.00;90.60
16503;DHT22;53067;48.114;11.694;2023-02-02T15:57:34;5.00;90.50
16503;DHT22;53067;48.114;11.694;2023-02-02T16:00:27;4.90;90.60
16503;DHT22;53067;48.114;11.694;2023-02-02T16:03:06;5.00;90.70
16503;DHT22;53067;48.114;11.694;2023-02-02T16:08:15;5.00;90.50
16503;DHT22;53067;48.114;11.694;2023-02-02T16:10:41;5.00;90.60
16503;DHT22;53067;48.114;11.694;2023-02-02T16:13:20;5.00;90.50
16503;DHT22;53067;48.114;11.694;2023-02-02T16:15:53;5.00;90.50
16503;DHT22;53067;48.114;11.694;2023-02-02T16:18:21;4.90;90.50
16503;DHT22;53067;48.114;11.694;2023-02-02T16:20:49;4.90;90.40
16503;DHT22;53067;48.114;11.694;2023-02-02T16:23:29;4.90;90.70
16503;DHT22;53067;48.114;11.694;2023-02-02T16:25:59;5.00;90.40
16503;DHT22;53067;48.114;11.694;2023-02-02T16:28:28;5.00;90.30
16503;DHT22;53067;48.114;11.694;2023-02-02T16:31:00;5.00;90.30
16503;DHT22;53067;48.114;11.694;2023-02-02T16:33:42;5.10;90.10
16503;DHT22;53067;48.114;11.694;2023-02-02T16:36:27;5.10;90.10
16503;DHT22;53067;48.114;11.694;2023-02-02T16:38:56;5.10;90.00
16503;DHT22;53067;48.114;11.694;2023-02-02T16:41:34;5.10;90.00
16503;DHT22;53067;48.114;11.694;2023-02-02T16:44:27;5.10;89.90
16503;DHT22;53067;48.114;11.694;2023-02-02T16:46:56;5.10;89.90
16503;DHT22;53067;48.114;11.694;2023-02-02T16:49:25;5.20;89.90
16503;DHT22;53067;48.114;11.694;2023-02-02T16:52:16;5.20;89.40
16503;DHT22;53067;48.114;11.694;2023-02-02T16:54:53;5.20;89.50
16503;DHT22;53067;48.114;11.694;2023-02-02T16:57:28;5.30;88.70
16503;DHT22;53067;48.114;11.694;2023-02-02T16:59:58;5.30;88.90
16503;DHT22;53067;48.114;11.694;2023-02-02T17:02:38;5.30;88.50
16503;DHT22;53067;48.114;11.694;2023-02-02T17:05:05;5.30;88.40
16503;DHT22;53067;48.114;11.694;2023-02-02T17:07:37;5.30;88.30
16503;DHT22;53067;48.114;11.694;2023-02-02T17:12:39;5.30;88.60
16503;DHT22;53067;48.114;11.694;2023-02-02T17:17:47;5.30;88.70
16503;DHT22;53067;48.114;11.694;2023-02-02T17:20:17;5.30;88.50
16503;DHT22;53067;48.114;11.694;2023-02-02T17:22:47;5.40;89.30
16503;DHT22;53067;48.114;11.694;2023-02-02T17:25:17;5.40;87.90
16503;DHT22;53067;48.114;11.694;2023-02-02T17:27:46;5.40;87.90
16503;DHT22;53067;48.114;11.694;2023-02-02T17:30:16;5.40;87.80
16503;DHT22;53067;48.114;11.694;2023-02-02T17:32:44;5.40;87.50
16503;DHT22;53067;48.114;11.694;2023-02-02T17:35:17;5.40;87.80
16503;DHT22;53067;48.114;11.694;2023-02-02T17:37:45;5.50;87.80
16503;DHT22;53067;48.114;11.694;2023-02-02T17:40:17;5.50;87.50
16503;DHT22;53067;48.114;11.694;2023-02-02T17:42:48;5.50;87.10
16503;DHT22;53067;48.114;11.694;2023-02-02T17:45:22;5.40;87.30
16503;DHT22;53067;48.114;11.694;2023-02-02T17:47:50;5.50;87.50
16503;DHT22;53067;48.114;11.694;2023-02-02T17:50:18;5.50;87.50
16503;DHT22;53067;48.114;11.694;2023-02-02T17:52:47;5.50;87.10
16503;DHT22;53067;48.114;11.694;2023-02-02T17:55:26;5.50;87.30
16503;DHT22;53067;48.114;11.694;2023-02-02T17:57:56;5.50;87.30
16503;DHT22;53067;48.114;11.694;2023-02-02T18:00:25;5.50;86.50
16503;DHT22;53067;48.114;11.694;2023-02-02T18:03:03;5.50;86.70
16503;DHT22;53067;48.114;11.694;2023-02-02T18:05:26;5.60;86.70
16503;DHT22;53067;48.114;11.694;2023-02-02T18:07:54;5.50;87.10
16503;DHT22;53067;48.114;11.694;2023-02-02T18:10:21;5.60;86.50
16503;DHT22;53067;48.114;11.694;2023-02-02T18:12:53;5.60;86.60
16503;DHT22;53067;48.114;11.694;2023-02-02T18:15:21;5.60;86.50
16503;DHT22;53067;48.114;11.694;2023-02-02T18:17:48;5.60;86.10
16503;DHT22;53067;48.114;11.694;2023-02-02T18:20:16;5.60;86.50
16503;DHT22;53067;48.114;11.694;2023-02-02T18:22:44;5.60;86.40
16503;DHT22;53067;48.114;11.694;2023-02-02T18:25:15;5.60;86.10